sensor_id;sensor_type;location;lat;lon;timestamp;temperature;humidity
15625;DHT22;7912;51.376;6.126;2023-02-01T00:00:01;9.20;99.90
15625;DHT22;7912;51.376;6.126;2023-02-01T00:02:28;9.20;99.90
15625;DHT22;7912;51.376;6.126;2023-02-01T00:04:56;9.30;99.90
15625;DHT22;7912;51.376;6.126;2023-02-01T00:07:23;9.30;99.90
15625;DHT22;7912;51.376;6.126;2023-02-01T00:09:50;9.30;99.90
15625;DHT22;7912;51.376;6.126;2023-02-01T00:12:17;9.30;99.90
15625;DHT22;7912;51.376;6.126;2023-02-01T00:14:46;9.40;99.90
15625;DHT22;7912;51.376;6.126;2023-02-01T00:17:15;9.40;99.90
15625;DHT22;7912;51.376;6.126;2023-02-01T00:19:42;9.40;99.90
15625;DHT22;7912;51.376;6.126;2023-02-01T00:22:09;9.40;99.90
15625;DHT22;7912;51.376;6.126;2023-02-01T00:24:36;9.30;99.90
15625;DHT22;7912;51.376;6.126;2023-02-01T00:27:04;9.30;99.90
15625;DHT22;7912;51.376;6.126;2023-02-01T00:29:31;9.30;99.90
15625;DHT22;7912;51.376;6.126;2023-02-01T00:31:58;9.20;99.90
15625;DHT22;7912;51.376;6.126;2023-02-01T00:34:26;9.20;99.90
15625;DHT22;7912;51.376;6.126;2023-02-01T00:36:53;9.20;99.90
15625;DHT22;7912;51.376;6.126;2023-02-01T00:39:20;9.10;99.90
15625;DHT22;7912;51.376;6.126;2023-02-01T00:41:47;9.10;99.90
15625;DHT22;7912;51.376;6.126;2023-02-01T00:44:15;9.00;99.90
15625;DHT22;7912;51.376;6.126;2023-02-01T00:46:42;9.00;99.90
15625;DHT22;7912;51.376;6.126;2023-02-01T00:49:09;8.90;99.90
15625;DHT22;7912;51.376;6.126;2023-02-01T00:51:37;8.90;99.90
15625;DHT22;7912;51.376;6.126;2023-02-01T00:54:04;8.80;99.90
15625;DHT22;7912;51.376;6.126;2023-02-01T00:56:31;8.80;99.90
15625;DHT22;7912;51.376;6.126;2023-02-01T00:58:58;8.80;99.90
15625;DHT22;7912;51.376;6.126;2023-02-01T01:01:27;8.70;99.90
15625;DHT22;7912;51.376;6.126;2023-02-01T01:03:57;8.70;99.90
15625;DHT22;7912;51.376;6.126;2023-02-01T01:06:30;8.70;99.90
15625;DHT22;7912;51.376;6.126;2023-02-01T01:09:02;8.60;99.90
15625;DHT22;7912;51.376;6.126;2023-02-01T01:11:34;8.60;99.90
15625;DHT22;7912;51.376;6.126;2023-02-01T01:14:04;8.60;99.90
15625;DHT22;7912;51.376;6.126;2023-02-01T01:16:33;8.50;99.90
15625;DHT22;7912;51.376;6.126;2023-02-01T01:19:01;8.50;99.90
15625;DHT22;7912;51.376;6.126;2023-02-01T01:21:29;8.50;99.90
15625;DHT22;7912;51.376;6.126;2023-02-01T01:23:57;8.50;99.90
15625;DHT22;7912;51.376;6.126;2023-02-01T01:26:27;8.40;99.90
15625;DHT22;7912;51.376;6.126;2023-02-01T01:28:57;8.40;99.90
15625;DHT22;7912;51.376;6.126;2023-02-01T01:31:25;8.40;99.90
15625;DHT22;7912;51.376;6.126;2023-02-01T01:33:55;8.40;99.90
15625;DHT22;7912;51.376;6.126;2023-02-01T01:36:24;8.40;99.90
15625;DHT22;7912;51.376;6.126;2023-02-01T01:38:53;8.40;99.90
15625;DHT22;7912;51.376;6.126;2023-02-01T01:41:28;8.30;99.90
15625;DHT22;7912;51.376;6.126;2023-02-01T01:44:03;8.30;99.90
15625;DHT22;7912;51.376;6.126;2023-02-01T01:46:36;8.30;99.90
15625;DHT22;7912;51.376;6.126;2023-02-01T01:49:20;8.30;99.90
15625;DHT22;7912;51.376;6.126;2023-02-01T01:54:27;8.20;99.90
15625;DHT22;7912;51.376;6.126;2023-02-01T01:57:24;8.20;99.90
15625;DHT22;7912;51.376;6.126;2023-02-01T02:00:07;8.10;99.90
15625;DHT22;7912;51.376;6.126;2023-02-01T02:02:40;8.10;99.90
15625;DHT22;7912;51.376;6.126;2023-02-01T02:05:09;8.10;99.90
15625;DHT22;7912;51.376;6.126;2023-02-01T02:07:43;8.10;99.90
15625;DHT22;7912;51.376;6.126;2023-02-01T02:10:16;8.00;99.90
15625;DHT22;7912;51.376;6.126;2023-02-01T02:12:45;8.00;99.90
15625;DHT22;7912;51.376;6.126;2023-02-01T02:15:16;8.00;99.90
15625;DHT22;7912;51.376;6.126;2023-02-01T02:20:56;7.90;99.90
15625;DHT22;7912;51.376;6.126;2023-02-01T02:33:21;7.80;99.90
15625;DHT22;7912;51.376;6.126;2023-02-01T02:51:27;7.50;99.90
15625;DHT22;7912;51.376;6.126;2023-02-01T02:54:23;7.50;99.90
15625;DHT22;7912;51.376;6.126;2023-02-01T02:57:14;7.50;99.90
15625;DHT22;7912;51.376;6.126;2023-02-01T03:00:02;7.50;99.90
15625;DHT22;7912;51.376;6.126;2023-02-01T03:02:51;7.50;99.90
15625;DHT22;7912;51.376;6.126;2023-02-01T03:05:43;7.50;99.90
15625;DHT22;7912;51.376;6.126;2023-02-01T03:08:17;7.50;99.90
15625;DHT22;7912;51.376;6.126;2023-02-01T03:11:06;7.60;99.90
15625;DHT22;7912;51.376;6.126;2023-02-01T03:13:55;7.60;99.90
15625;DHT22;7912;51.376;6.126;2023-02-01T03:19:22;7.70;99.90
15625;DHT22;7912;51.376;6.126;2023-02-01T03:21:59;7.80;99.90
15625;DHT22;7912;51.376;6.126;2023-02-01T03:24:40;7.80;99.90
15625;DHT22;7912;51.376;6.126;2023-02-01T03:27:36;7.90;99.90
15625;DHT22;7912;51.376;6.126;2023-02-01T03:32:59;7.90;99.90
15625;DHT22;7912;51.376;6.126;2023-02-01T03:35:33;8.00;99.90
15625;DHT22;7912;51.376;6.126;2023-02-01T03:38:17;8.00;99.90
15625;DHT22;7912;51.376;6.126;2023-02-01T03:40:57;8.00;99.90
15625;DHT22;7912;51.376;6.126;2023-02-01T03:43:29;8.10;99.90
15625;DHT22;7912;51.376;6.126;2023-02-01T03:46:14;8.10;99.90
15625;DHT22;7912;51.376;6.126;2023-02-01T03:48:49;8.10;99.90
15625;DHT22;7912;51.376;6.126;2023-02-01T03:55:28;8.10;99.90
15625;DHT22;7912;51.376;6.126;2023-02-01T03:58:16;8.10;99.90
15625;DHT22;7912;51.376;6.126;2023-02-01T04:00:57;8.10;99.90
15625;DHT22;7912;51.376;6.126;2023-02-01T04:03:27;8.10;99.90
15625;DHT22;7912;51.376;6.126;2023-02-01T04:05:55;8.10;99.90
15625;DHT22;7912;51.376;6.126;2023-02-01T04:08:23;8.10;99.90
15625;DHT22;7912;51.376;6.126;2023-02-01T04:10:50;8.10;99.90
15625;DHT22;7912;51.376;6.126;2023-02-01T04:13:17;8.10;99.90
15625;DHT22;7912;51.376;6.126;2023-02-01T04:15:47;8.10;99.90
15625;DHT22;7912;51.376;6.126;2023-02-01T04:18:16;8.10;99.90
15625;DHT22;7912;51.376;6.126;2023-02-01T04:20:44;8.00;99.90
15625;DHT22;7912;51.376;6.126;2023-02-01T04:23:11;8.00;99.90
15625;DHT22;7912;51.376;6.126;2023-02-01T04:25:39;8.00;99.90
15625;DHT22;7912;51.376;6.126;2023-02-01T04:28:06;7.90;99.90
15625;DHT22;7912;51.376;6.126;2023-02-01T04:30:34;7.90;99.90
15625;DHT22;7912;51.376;6.126;2023-02-01T04:33:01;7.80;99.90
15625;DHT22;7912;51.376;6.126;2023-02-01T04:35:32;7.80;99.90
15625;DHT22;7912;51.376;6.126;2023-02-01T04:37:59;7.70;99.90
15625;DHT22;7912;51.376;6.126;2023-02-01T04:40:27;7.70;99.90
15625;DHT22;7912;51.376;6.126;2023-02-01T04:42:54;7.70;99.90
15625;DHT22;7912;51.376;6.126;2023-02-01T04:45:21;7.60;99.90
15625;DHT22;7912;51.376;6.126;2023-02-01T04:47:48;7.60;99.90
15625;DHT22;7912;51.376;6.126;2023-02-01T04:50:16;7.60;99.90
15625;DHT22;7912;51.376;6.126;2023-02-01T04:52:43;7.60;99.90
15625;DHT22;7912;51.376;6.126;2023-02-01T04:55:12;7.60;99.90
15625;DHT22;7912;51.376;6.126;2023-02-01T04:57:42;7.60;99.90
15625;DHT22;7912;51.376;6.126;2023-02-01T05:00:10;7.60;99.90
15625;DHT22;7912;51.376;6.126;2023-02-01T05:02:38;7.50;99.90
15625;DHT22;7912;51.376;6.126;2023-02-01T05:05:05;7.50;99.90
15625;DHT22;7912;51.376;6.126;2023-02-01T05:07:35;7.50;99.90
15625;DHT22;7912;51.376;6.126;2023-02-01T05:10:03;7.50;99.90
15625;DHT22;7912;51.376;6.126;2023-02-01T05:12:30;7.50;99.90
15625;DHT22;7912;51.376;6.126;2023-02-01T05:15:16;7.50;99.90
15625;DHT22;7912;51.376;6.126;2023-02-01T05:17:43;7.50;99.90
15625;DHT22;7912;51.376;6.126;2023-02-01T05:20:11;7.50;99.90
15625;DHT22;7912;51.376;6.126;2023-02-01T05:22:38;7.50;99.90
15625;DHT22;7912;51.376;6.126;2023-02-01T05:25:05;7.50;99.90
15625;DHT22;7912;51.376;6.126;2023-02-01T05:27:34;7.50;99.90
15625;DHT22;7912;51.376;6.126;2023-02-01T05:30:03;7.50;99.90
15625;DHT22;7912;51.376;6.126;2023-02-01T05:32:31;7.50;99.90
15625;DHT22;7912;51.376;6.126;2023-02-01T05:34:59;7.50;99.90
15625;DHT22;7912;51.376;6.126;2023-02-01T05:37:27;7.50;99.90
15625;DHT22;7912;51.376;6.126;2023-02-01T05:39:54;7.40;99.90
15625;DHT22;7912;51.376;6.126;2023-02-01T05:42:21;7.50;99.90
15625;DHT22;7912;51.376;6.126;2023-02-01T05:44:49;7.40;99.90
15625;DHT22;7912;51.376;6.126;2023-02-01T05:47:16;7.40;99.90
15625;DHT22;7912;51.376;6.126;2023-02-01T05:49:43;7.40;99.90
15625;DHT22;7912;51.376;6.126;2023-02-01T05:52:10;7.40;99.90
15625;DHT22;7912;51.376;6.126;2023-02-01T05:54:38;7.40;99.90
15625;DHT22;7912;51.376;6.126;2023-02-01T05:57:05;7.40;99.90
15625;DHT22;7912;51.376;6.126;2023-02-01T05:59:32;7.40;99.90
15625;DHT22;7912;51.376;6.126;2023-02-01T06:01:59;7.40;99.90
15625;DHT22;7912;51.376;6.126;2023-02-01T06:04:26;7.40;99.90
15625;DHT22;7912;51.376;6.126;2023-02-01T06:06:54;7.40;99.90
15625;DHT22;7912;51.376;6.126;2023-02-01T06:09:21;7.50;99.90
15625;DHT22;7912;51.376;6.126;2023-02-01T06:11:48;7.50;99.90
15625;DHT22;7912;51.376;6.126;2023-02-01T06:14:16;7.50;99.90
15625;DHT22;7912;51.376;6.126;2023-02-01T06:16:43;7.60;99.90
15625;DHT22;7912;51.376;6.126;2023-02-01T06:19:13;7.60;99.90
15625;DHT22;7912;51.376;6.126;2023-02-01T06:21:40;7.70;99.90
15625;DHT22;7912;51.376;6.126;2023-02-01T06:24:08;7.70;99.90
15625;DHT22;7912;51.376;6.126;2023-02-01T06:26:36;7.70;99.90
15625;DHT22;7912;51.376;6.126;2023-02-01T06:29:12;7.70;99.90
15625;DHT22;7912;51.376;6.126;2023-02-01T06:31:39;7.80;99.90
15625;DHT22;7912;51.376;6.126;2023-02-01T06:34:10;7.70;99.90
15625;DHT22;7912;51.376;6.126;2023-02-01T06:36:37;7.80;99.90
15625;DHT22;7912;51.376;6.126;2023-02-01T06:39:05;7.80;99.90
15625;DHT22;7912;51.376;6.126;2023-02-01T06:41:32;7.80;99.90
15625;DHT22;7912;51.376;6.126;2023-02-01T06:48:44;7.80;99.90
15625;DHT22;7912;51.376;6.126;2023-02-01T06:51:26;7.80;99.90
15625;DHT22;7912;51.376;6.126;2023-02-01T06:53:56;7.80;99.90
15625;DHT22;7912;51.376;6.126;2023-02-01T06:56:24;7.80;99.90
15625;DHT22;7912;51.376;6.126;2023-02-01T06:58:54;7.80;99.90
15625;DHT22;7912;51.376;6.126;2023-02-01T07:01:22;7.80;99.90
15625;DHT22;7912;51.376;6.126;2023-02-01T07:03:50;7.90;99.90
15625;DHT22;7912;51.376;6.126;2023-02-01T07:06:18;7.90;99.90
15625;DHT22;7912;51.376;6.126;2023-02-01T07:08:45;7.90;99.90
15625;DHT22;7912;51.376;6.126;2023-02-01T07:11:14;7.90;99.90
15625;DHT22;7912;51.376;6.126;2023-02-01T07:13:42;8.00;99.90
15625;DHT22;7912;51.376;6.126;2023-02-01T07:16:16;8.00;99.90
15625;DHT22;7912;51.376;6.126;2023-02-01T07:18:45;8.00;99.90
15625;DHT22;7912;51.376;6.126;2023-02-01T07:21:13;8.00;99.90
15625;DHT22;7912;51.376;6.126;2023-02-01T07:23:40;8.10;99.90
15625;DHT22;7912;51.376;6.126;2023-02-01T07:26:10;8.10;99.90
15625;DHT22;7912;51.376;6.126;2023-02-01T07:28:40;8.10;99.90
15625;DHT22;7912;51.376;6.126;2023-02-01T07:31:11;8.10;99.90
15625;DHT22;7912;51.376;6.126;2023-02-01T07:33:42;8.20;99.90
15625;DHT22;7912;51.376;6.126;2023-02-01T07:36:15;8.20;99.90
15625;DHT22;7912;51.376;6.126;2023-02-01T07:38:43;8.30;99.90
15625;DHT22;7912;51.376;6.126;2023-02-01T07:41:11;8.30;99.90
15625;DHT22;7912;51.376;6.126;2023-02-01T07:43:38;8.30;99.90
15625;DHT22;7912;51.376;6.126;2023-02-01T07:46:06;8.30;99.90
15625;DHT22;7912;51.376;6.126;2023-02-01T07:48:33;8.30;99.90
15625;DHT22;7912;51.376;6.126;2023-02-01T07:51:03;8.30;99.90
15625;DHT22;7912;51.376;6.126;2023-02-01T07:53:39;8.30;99.90
15625;DHT22;7912;51.376;6.126;2023-02-01T07:56:12;8.30;99.90
15625;DHT22;7912;51.376;6.126;2023-02-01T07:58:50;8.30;99.90
15625;DHT22;7912;51.376;6.126;2023-02-01T08:01:21;8.30;99.90
15625;DHT22;7912;51.376;6.126;2023-02-01T08:06:23;8.20;99.90
15625;DHT22;7912;51.376;6.126;2023-02-01T08:08:52;8.20;99.90
15625;DHT22;7912;51.376;6.126;2023-02-01T08:11:21;8.10;99.90
15625;DHT22;7912;51.376;6.126;2023-02-01T08:13:51;8.10;99.90
15625;DHT22;7912;51.376;6.126;2023-02-01T08:16:20;8.10;99.90
15625;DHT22;7912;51.376;6.126;2023-02-01T08:18:49;8.10;99.90
15625;DHT22;7912;51.376;6.126;2023-02-01T08:21:20;8.10;99.90
15625;DHT22;7912;51.376;6.126;2023-02-01T08:23:49;8.10;99.90
15625;DHT22;7912;51.376;6.126;2023-02-01T08:26:23;8.10;99.90
15625;DHT22;7912;51.376;6.126;2023-02-01T08:28:55;8.10;99.90
15625;DHT22;7912;51.376;6.126;2023-02-01T08:31:26;8.10;99.90
15625;DHT22;7912;51.376;6.126;2023-02-01T08:33:57;8.10;99.90
15625;DHT22;7912;51.376;6.126;2023-02-01T08:36:29;8.00;99.90
15625;DHT22;7912;51.376;6.126;2023-02-01T08:38:57;8.00;99.90
15625;DHT22;7912;51.376;6.126;2023-02-01T08:41:27;8.00;99.90
15625;DHT22;7912;51.376;6.126;2023-02-01T08:43:57;8.00;99.90
15625;DHT22;7912;51.376;6.126;2023-02-01T08:46:27;8.00;99.90
15625;DHT22;7912;51.376;6.126;2023-02-01T08:48:59;8.00;99.90
15625;DHT22;7912;51.376;6.126;2023-02-01T08:51:26;8.00;99.90
15625;DHT22;7912;51.376;6.126;2023-02-01T08:53:56;8.00;99.90
15625;DHT22;7912;51.376;6.126;2023-02-01T08:56:23;8.10;99.90
15625;DHT22;7912;51.376;6.126;2023-02-01T08:58:50;8.10;99.90
15625;DHT22;7912;51.376;6.126;2023-02-01T09:01:17;8.10;99.90
15625;DHT22;7912;51.376;6.126;2023-02-01T09:03:45;8.20;99.90
15625;DHT22;7912;51.376;6.126;2023-02-01T09:06:15;8.20;99.90
15625;DHT22;7912;51.376;6.126;2023-02-01T09:08:43;8.20;99.90
15625;DHT22;7912;51.376;6.126;2023-02-01T09:11:14;8.20;99.90
15625;DHT22;7912;51.376;6.126;2023-02-01T09:13:43;8.30;99.90
15625;DHT22;7912;51.376;6.126;2023-02-01T09:16:11;8.30;99.90
15625;DHT22;7912;51.376;6.126;2023-02-01T09:18:41;8.30;99.90
15625;DHT22;7912;51.376;6.126;2023-02-01T09:21:27;8.40;99.90
15625;DHT22;7912;51.376;6.126;2023-02-01T09:23:55;8.50;99.90
15625;DHT22;7912;51.376;6.126;2023-02-01T09:26:23;8.50;99.90
15625;DHT22;7912;51.376;6.126;2023-02-01T09:28:59;8.60;99.90
15625;DHT22;7912;51.376;6.126;2023-02-01T09:31:29;8.70;99.90
15625;DHT22;7912;51.376;6.126;2023-02-01T09:33:57;8.80;99.90
15625;DHT22;7912;51.376;6.126;2023-02-01T09:36:25;8.80;99.90
15625;DHT22;7912;51.376;6.126;2023-02-01T09:38:57;8.90;99.90
15625;DHT22;7912;51.376;6.126;2023-02-01T09:47:15;9.00;99.90
15625;DHT22;7912;51.376;6.126;2023-02-01T09:50:08;9.10;99.90
15625;DHT22;7912;51.376;6.126;2023-02-01T09:55:49;9.20;99.90
15625;DHT22;7912;51.376;6.126;2023-02-01T10:01:20;9.30;99.90
15625;DHT22;7912;51.376;6.126;2023-02-01T10:04:17;9.40;99.90
15625;DHT22;7912;51.376;6.126;2023-02-01T10:06:57;9.50;99.90
15625;DHT22;7912;51.376;6.126;2023-02-01T10:15:18;9.70;99.90
15625;DHT22;7912;51.376;6.126;2023-02-01T10:24:07;9.90;99.90
15625;DHT22;7912;51.376;6.126;2023-02-01T10:26:49;10.00;99.90
15625;DHT22;7912;51.376;6.126;2023-02-01T10:29:27;10.00;99.90
15625;DHT22;7912;51.376;6.126;2023-02-01T10:32:02;10.00;99.90
15625;DHT22;7912;51.376;6.126;2023-02-01T10:34:38;10.00;99.90
15625;DHT22;7912;51.376;6.126;2023-02-01T10:37:17;10.10;99.90
15625;DHT22;7912;51.376;6.126;2023-02-01T10:39:53;10.10;99.90
15625;DHT22;7912;51.376;6.126;2023-02-01T10:42:28;10.20;99.90
15625;DHT22;7912;51.376;6.126;2023-02-01T10:45:00;10.20;99.90
15625;DHT22;7912;51.376;6.126;2023-02-01T10:47:29;10.20;99.90
15625;DHT22;7912;51.376;6.126;2023-02-01T10:53:01;10.20;99.90
15625;DHT22;7912;51.376;6.126;2023-02-01T10:58:28;10.30;99.90
15625;DHT22;7912;51.376;6.126;2023-02-01T11:01:06;10.40;99.90
15625;DHT22;7912;51.376;6.126;2023-02-01T11:03:56;10.40;99.90
15625;DHT22;7912;51.376;6.126;2023-02-01T11:06:33;10.50;99.90
15625;DHT22;7912;51.376;6.126;2023-02-01T11:14:16;10.60;99.90
15625;DHT22;7912;51.376;6.126;2023-02-01T11:17:10;10.60;99.90
15625;DHT22;7912;51.376;6.126;2023-02-01T11:20:00;10.60;99.90
15625;DHT22;7912;51.376;6.126;2023-02-01T11:22:31;10.70;99.90
15625;DHT22;7912;51.376;6.126;2023-02-01T11:25:08;10.70;99.90
15625;DHT22;7912;51.376;6.126;2023-02-01T11:27:38;10.80;99.90
15625;DHT22;7912;51.376;6.126;2023-02-01T11:30:31;10.80;99.90
15625;DHT22;7912;51.376;6.126;2023-02-01T11:33:03;10.80;99.90
15625;DHT22;7912;51.376;6.126;2023-02-01T11:35:37;10.90;99.90
15625;DHT22;7912;51.376;6.126;2023-02-01T11:38:32;10.90;99.90
15625;DHT22;7912;51.376;6.126;2023-02-01T11:41:26;10.90;99.90
15625;DHT22;7912;51.376;6.126;2023-02-01T11:44:02;11.00;99.90
15625;DHT22;7912;51.376;6.126;2023-02-01T11:46:46;11.00;99.90
15625;DHT22;7912;51.376;6.126;2023-02-01T11:49:27;11.10;99.90
15625;DHT22;7912;51.376;6.126;2023-02-01T11:58:46;11.20;99.90
15625;DHT22;7912;51.376;6.126;2023-02-01T12:04:54;11.20;99.90
15625;DHT22;7912;51.376;6.126;2023-02-01T12:07:49;11.20;99.90
15625;DHT22;7912;51.376;6.126;2023-02-01T12:10:39;11.20;99.90
15625;DHT22;7912;51.376;6.126;2023-02-01T12:13:38;11.20;99.90
15625;DHT22;7912;51.376;6.126;2023-02-01T12:22:40;11.20;99.90
15625;DHT22;7912;51.376;6.126;2023-02-01T12:25:20;11.20;99.90
15625;DHT22;7912;51.376;6.126;2023-02-01T12:28:08;11.20;99.90
15625;DHT22;7912;51.376;6.126;2023-02-01T12:31:24;11.20;99.90
15625;DHT22;7912;51.376;6.126;2023-02-01T12:37:51;11.20;99.90
15625;DHT22;7912;51.376;6.126;2023-02-01T12:46:50;11.30;99.90
15625;DHT22;7912;51.376;6.126;2023-02-01T12:49:41;11.30;99.90
15625;DHT22;7912;51.376;6.126;2023-02-01T12:52:16;11.30;99.90
15625;DHT22;7912;51.376;6.126;2023-02-01T12:55:03;11.20;99.90
15625;DHT22;7912;51.376;6.126;2023-02-01T12:57:37;11.30;99.90
15625;DHT22;7912;51.376;6.126;2023-02-01T13:08:43;11.20;99.90
15625;DHT22;7912;51.376;6.126;2023-02-01T13:17:15;11.30;99.90
15625;DHT22;7912;51.376;6.126;2023-02-01T13:20:16;11.30;99.90
15625;DHT22;7912;51.376;6.126;2023-02-01T13:23:09;11.30;99.90
15625;DHT22;7912;51.376;6.126;2023-02-01T13:25:48;11.30;99.90
15625;DHT22;7912;51.376;6.126;2023-02-01T13:29:00;11.30;99.90
15625;DHT22;7912;51.376;6.126;2023-02-01T13:43:15;11.70;99.90
15625;DHT22;7912;51.376;6.126;2023-02-01T13:45:55;11.80;99.90
15625;DHT22;7912;51.376;6.126;2023-02-01T13:48:52;11.80;99.90
15625;DHT22;7912;51.376;6.126;2023-02-01T13:54:00;11.80;99.90
15625;DHT22;7912;51.376;6.126;2023-02-01T13:56:28;11.90;99.90
15625;DHT22;7912;51.376;6.126;2023-02-01T14:05:11;11.80;99.90
15625;DHT22;7912;51.376;6.126;2023-02-01T14:10:54;11.80;99.90
15625;DHT22;7912;51.376;6.126;2023-02-01T14:13:39;11.80;99.90
15625;DHT22;7912;51.376;6.126;2023-02-01T14:16:17;11.80;99.90
15625;DHT22;7912;51.376;6.126;2023-02-01T14:30:05;11.80;99.90
15625;DHT22;7912;51.376;6.126;2023-02-01T14:32:39;11.80;99.90
15625;DHT22;7912;51.376;6.126;2023-02-01T14:35:21;11.80;99.90
15625;DHT22;7912;51.376;6.126;2023-02-01T14:37:59;11.80;99.90
15625;DHT22;7912;51.376;6.126;2023-02-01T14:40:34;11.80;99.90
15625;DHT22;7912;51.376;6.126;2023-02-01T14:43:02;11.80;99.90
15625;DHT22;7912;51.376;6.126;2023-02-01T14:50:42;11.80;99.90
15625;DHT22;7912;51.376;6.126;2023-02-01T14:59:01;11.70;99.90
15625;DHT22;7912;51.376;6.126;2023-02-01T15:01:38;11.80;99.90
15625;DHT22;7912;51.376;6.126;2023-02-01T15:04:18;11.70;99.90
15625;DHT22;7912;51.376;6.126;2023-02-01T15:06:58;11.70;99.90
15625;DHT22;7912;51.376;6.126;2023-02-01T15:09:53;11.70;99.90
15625;DHT22;7912;51.376;6.126;2023-02-01T15:12:26;11.70;99.90
15625;DHT22;7912;51.376;6.126;2023-02-01T15:15:21;11.70;99.90
15625;DHT22;7912;51.376;6.126;2023-02-01T15:17:56;11.70;99.90
15625;DHT22;7912;51.376;6.126;2023-02-01T15:20:29;11.70;99.90
15625;DHT22;7912;51.376;6.126;2023-02-01T15:23:02;11.60;99.90
15625;DHT22;7912;51.376;6.126;2023-02-01T15:25:36;11.70;99.90
15625;DHT22;7912;51.376;6.126;2023-02-01T15:28:09;11.70;99.90
15625;DHT22;7912;51.376;6.126;2023-02-01T15:30:55;11.60;99.90
15625;DHT22;7912;51.376;6.126;2023-02-01T15:33:26;11.60;99.90
15625;DHT22;7912;51.376;6.126;2023-02-01T15:36:17;11.60;99.90
15625;DHT22;7912;51.376;6.126;2023-02-01T15:38:47;11.60;99.90
15625;DHT22;7912;51.376;6.126;2023-02-01T15:41:19;11.50;99.90
15625;DHT22;7912;51.376;6.126;2023-02-01T15:46:35;11.50;99.90
15625;DHT22;7912;51.376;6.126;2023-02-01T15:49:05;11.50;99.90
15625;DHT22;7912;51.376;6.126;2023-02-01T15:52:03;11.40;99.90
15625;DHT22;7912;51.376;6.126;2023-02-01T15:58:05;11.40;99.90
15625;DHT22;7912;51.376;6.126;2023-02-01T16:00:46;11.40;99.90
15625;DHT22;7912;51.376;6.126;2023-02-01T16:03:38;11.40;99.90
15625;DHT22;7912;51.376;6.126;2023-02-01T16:06:29;11.30;99.90
15625;DHT22;7912;51.376;6.126;2023-02-01T16:11:31;11.30;99.90
15625;DHT22;7912;51.376;6.126;2023-02-01T16:14:00;11.30;99.90
15625;DHT22;7912;51.376;6.126;2023-02-01T16:16:29;11.30;99.90
15625;DHT22;7912;51.376;6.126;2023-02-01T16:18:56;11.30;99.90
15625;DHT22;7912;51.376;6.126;2023-02-01T16:21:24;11.30;99.90
15625;DHT22;7912;51.376;6.126;2023-02-01T16:23:52;11.30;99.90
15625;DHT22;7912;51.376;6.126;2023-02-01T16:26:20;11.20;99.90
15625;DHT22;7912;51.376;6.126;2023-02-01T16:28:48;11.20;99.90
15625;DHT22;7912;51.376;6.126;2023-02-01T16:31:17;11.20;99.90
15625;DHT22;7912;51.376;6.126;2023-02-01T16:33:51;11.20;99.90
15625;DHT22;7912;51.376;6.126;2023-02-01T16:36:19;11.20;99.90
15625;DHT22;7912;51.376;6.126;2023-02-01T16:38:47;11.10;99.90
15625;DHT22;7912;51.376;6.126;2023-02-01T16:41:20;11.10;99.90
15625;DHT22;7912;51.376;6.126;2023-02-01T16:43:50;11.10;99.90
15625;DHT22;7912;51.376;6.126;2023-02-01T16:46:21;11.10;99.90
15625;DHT22;7912;51.376;6.126;2023-02-01T16:48:55;11.00;99.90
15625;DHT22;7912;51.376;6.126;2023-02-01T16:51:30;11.00;99.90
15625;DHT22;7912;51.376;6.126;2023-02-01T16:54:00;11.00;99.90
15625;DHT22;7912;51.376;6.126;2023-02-01T16:56:32;11.00;99.90
15625;DHT22;7912;51.376;6.126;2023-02-01T16:59:00;10.90;99.90
15625;DHT22;7912;51.376;6.126;2023-02-01T17:01:28;10.90;99.90
15625;DHT22;7912;51.376;6.126;2023-02-01T17:03:55;11.00;99.90
15625;DHT22;7912;51.376;6.126;2023-02-01T17:06:24;11.00;99.90
15625;DHT22;7912;51.376;6.126;2023-02-01T17:08:56;11.00;99.90
15625;DHT22;7912;51.376;6.126;2023-02-01T17:11:25;11.00;99.90
15625;DHT22;7912;51.376;6.126;2023-02-01T17:13:53;11.00;99.90
15625;DHT22;7912;51.376;6.126;2023-02-01T17:16:28;11.00;99.90
15625;DHT22;7912;51.376;6.126;2023-02-01T17:19:06;11.00;99.90
15625;DHT22;7912;51.376;6.126;2023-02-01T17:21:46;11.00;99.90
15625;DHT22;7912;51.376;6.126;2023-02-01T17:24:19;11.00;99.90
15625;DHT22;7912;51.376;6.126;2023-02-01T17:26:49;11.00;99.90
15625;DHT22;7912;51.376;6.126;2023-02-01T17:29:17;11.00;99.90
15625;DHT22;7912;51.376;6.126;2023-02-01T17:31:50;11.00;99.90
15625;DHT22;7912;51.376;6.126;2023-02-01T17:34:22;11.00;99.90
15625;DHT22;7912;51.376;6.126;2023-02-01T17:36:49;11.00;99.90
15625;DHT22;7912;51.376;6.126;2023-02-01T17:39:17;11.00;99.90
15625;DHT22;7912;51.376;6.126;2023-02-01T17:42:05;11.00;99.90
15625;DHT22;7912;51.376;6.126;2023-02-01T17:44:36;11.00;99.90
15625;DHT22;7912;51.376;6.126;2023-02-01T17:47:04;11.10;99.90
15625;DHT22;7912;51.376;6.126;2023-02-01T17:49:31;11.10;99.90
15625;DHT22;7912;51.376;6.126;2023-02-01T17:52:00;11.10;99.90
15625;DHT22;7912;51.376;6.126;2023-02-01T17:54:27;11.10;99.90
15625;DHT22;7912;51.376;6.126;2023-02-01T17:56:55;11.10;99.90
15625;DHT22;7912;51.376;6.126;2023-02-01T17:59:26;11.10;99.90
15625;DHT22;7912;51.376;6.126;2023-02-01T18:01:53;11.10;99.90
15625;DHT22;7912;51.376;6.126;2023-02-01T18:04:26;11.10;99.90
15625;DHT22;7912;51.376;6.126;2023-02-01T18:06:53;11.10;99.90
15625;DHT22;7912;51.376;6.126;2023-02-01T18:09:21;11.10;99.90
15625;DHT22;7912;51.376;6.126;2023-02-01T18:11:48;11.10;99.90
15625;DHT22;7912;51.376;6.126;2023-02-01T18:14:16;11.10;99.90
15625;DHT22;7912;51.376;6.126;2023-02-01T18:16:43;11.10;99.90
15625;DHT22;7912;51.376;6.126;2023-02-01T18:19:10;11.10;99.90
15625;DHT22;7912;51.376;6.126;2023-02-01T18:21:40;11.10;99.90
15625;DHT22;7912;51.376;6.126;2023-02-01T18:24:13;11.10;99.90
15625;DHT22;7912;51.376;6.126;2023-02-01T18:26:41;11.10;99.90
15625;DHT22;7912;51.376;6.126;2023-02-01T18:29:09;11.10;99.90
15625;DHT22;7912;51.376;6.126;2023-02-01T18:31:43;11.00;99.90
15625;DHT22;7912;51.376;6.126;2023-02-01T18:34:12;11.00;99.90
15625;DHT22;7912;51.376;6.126;2023-02-01T18:36:50;11.00;99.90
15625;DHT22;7912;51.376;6.126;2023-02-01T18:39:18;11.00;99.90
15625;DHT22;7912;51.376;6.126;2023-02-01T18:41:47;11.00;99.90
15625;DHT22;7912;51.376;6.126;2023-02-01T18:44:17;11.00;99.90
15625;DHT22;7912;51.376;6.126;2023-02-01T18:46:45;11.00;99.90
15625;DHT22;7912;51.376;6.126;2023-02-01T18:49:12;11.10;99.90
15625;DHT22;7912;51.376;6.126;2023-02-01T18:51:44;11.10;99.90
15625;DHT22;7912;51.376;6.126;2023-02-01T18:54:12;11.10;99.90
15625;DHT22;7912;51.376;6.126;2023-02-01T18:56:40;11.10;99.90
15625;DHT22;7912;51.376;6.126;2023-02-01T18:59:08;11.10;99.90
15625;DHT22;7912;51.376;6.126;2023-02-01T19:01:37;11.10;99.90
15625;DHT22;7912;51.376;6.126;2023-02-01T19:04:05;11.10;99.90
15625;DHT22;7912;51.376;6.126;2023-02-01T19:06:39;11.10;99.90
15625;DHT22;7912;51.376;6.126;2023-02-01T19:09:06;11.10;99.90
15625;DHT22;7912;51.376;6.126;2023-02-01T19:11:33;11.10;99.90
15625;DHT22;7912;51.376;6.126;2023-02-01T19:14:00;11.10;99.90
15625;DHT22;7912;51.376;6.126;2023-02-01T19:16:27;11.20;99.90
15625;DHT22;7912;51.376;6.126;2023-02-01T19:18:55;11.10;99.90
15625;DHT22;7912;51.376;6.126;2023-02-01T19:21:22;11.20;99.90
15625;DHT22;7912;51.376;6.126;2023-02-01T19:27:50;11.20;99.90
15625;DHT22;7912;51.376;6.126;2023-02-01T19:33:45;11.20;99.90
15625;DHT22;7912;51.376;6.126;2023-02-01T19:36:13;11.20;99.90